sensor_id;sensor_type;location;lat;lon;timestamp;P1;durP1;ratioP1;P2;durP2;ratioP2
7233;SDS011;3658;47.992;10.158;2024-03-06T00:00:00;1.60;;;1.50;;
7233;SDS011;3658;47.992;10.158;2024-03-06T00:02:28;1.87;;;1.60;;
7233;SDS011;3658;47.992;10.158;2024-03-06T00:04:55;2.17;;;1.80;;
7233;SDS011;3658;47.992;10.158;2024-03-06T00:07:23;1.83;;;1.43;;
7233;SDS011;3658;47.992;10.158;2024-03-06T00:09:50;1.70;;;1.60;;
7233;SDS011;3658;47.992;10.158;2024-03-06T00:12:18;1.93;;;1.70;;
7233;SDS011;3658;47.992;10.158;2024-03-06T00:14:45;1.90;;;1.67;;
7233;SDS011;3658;47.992;10.158;2024-03-06T00:17:11;1.77;;;1.57;;
7233;SDS011;3658;47.992;10.158;2024-03-06T00:19:38;1.40;;;1.30;;
7233;SDS011;3658;47.992;10.158;2024-03-06T00:22:05;1.57;;;1.47;;
7233;SDS011;3658;47.992;10.158;2024-03-06T00:24:33;1.53;;;1.30;;
7233;SDS011;3658;47.992;10.158;2024-03-06T00:26:59;1.50;;;1.40;;
7233;SDS011;3658;47.992;10.158;2024-03-06T00:29:26;2.63;;;1.60;;
7233;SDS011;3658;47.992;10.158;2024-03-06T00:31:53;1.50;;;1.40;;
7233;SDS011;3658;47.992;10.158;2024-03-06T00:34:20;2.07;;;1.80;;
7233;SDS011;3658;47.992;10.158;2024-03-06T00:36:46;2.07;;;1.73;;
7233;SDS011;3658;47.992;10.158;2024-03-06T00:39:14;2.00;;;1.50;;
7233;SDS011;3658;47.992;10.158;2024-03-06T00:41:42;1.30;;;1.20;;
7233;SDS011;3658;47.992;10.158;2024-03-06T00:44:09;1.60;;;1.40;;
7233;SDS011;3658;47.992;10.158;2024-03-06T00:46:36;1.80;;;1.50;;
7233;SDS011;3658;47.992;10.158;2024-03-06T00:49:03;2.27;;;1.33;;
7233;SDS011;3658;47.992;10.158;2024-03-06T00:51:29;1.60;;;1.50;;
7233;SDS011;3658;47.992;10.158;2024-03-06T00:53:56;1.37;;;1.27;;
7233;SDS011;3658;47.992;10.158;2024-03-06T00:56:23;2.30;;;1.40;;
7233;SDS011;3658;47.992;10.158;2024-03-06T00:58:51;1.50;;;1.40;;
7233;SDS011;3658;47.992;10.158;2024-03-06T01:01:18;1.60;;;1.50;;
7233;SDS011;3658;47.992;10.158;2024-03-06T01:03:45;1.30;;;1.20;;
7233;SDS011;3658;47.992;10.158;2024-03-06T01:06:11;1.40;;;1.30;;
7233;SDS011;3658;47.992;10.158;2024-03-06T01:08:38;1.50;;;1.40;;
7233;SDS011;3658;47.992;10.158;2024-03-06T01:11:06;1.20;;;1.10;;
7233;SDS011;3658;47.992;10.158;2024-03-06T01:13:32;1.63;;;1.40;;
7233;SDS011;3658;47.992;10.158;2024-03-06T01:16:00;1.40;;;1.30;;
7233;SDS011;3658;47.992;10.158;2024-03-06T01:18:27;2.07;;;1.53;;
7233;SDS011;3658;47.992;10.158;2024-03-06T01:20:54;1.23;;;1.13;;
7233;SDS011;3658;47.992;10.158;2024-03-06T01:23:21;1.30;;;1.20;;
7233;SDS011;3658;47.992;10.158;2024-03-06T01:25:47;1.20;;;1.10;;
7233;SDS011;3658;47.992;10.158;2024-03-06T01:28:14;1.50;;;1.40;;
7233;SDS011;3658;47.992;10.158;2024-03-06T01:30:41;1.57;;;1.30;;
7233;SDS011;3658;47.992;10.158;2024-03-06T01:33:09;1.40;;;1.30;;
7233;SDS011;3658;47.992;10.158;2024-03-06T01:35:36;1.47;;;1.23;;
7233;SDS011;3658;47.992;10.158;2024-03-06T01:38:03;1.33;;;1.23;;
7233;SDS011;3658;47.992;10.158;2024-03-06T01:40:30;1.43;;;1.33;;
7233;SDS011;3658;47.992;10.158;2024-03-06T01:42:57;1.40;;;1.30;;
7233;SDS011;3658;47.992;10.158;2024-03-06T01:45:26;1.57;;;1.30;;
7233;SDS011;3658;47.992;10.158;2024-03-06T01:47:53;1.40;;;1.30;;
7233;SDS011;3658;47.992;10.158;2024-03-06T01:50:21;1.20;;;1.10;;
7233;SDS011;3658;47.992;10.158;2024-03-06T01:52:49;1.23;;;1.07;;
7233;SDS011;3658;47.992;10.158;2024-03-06T01:55:16;1.87;;;1.40;;
7233;SDS011;3658;47.992;10.158;2024-03-06T01:57:42;1.13;;;1.10;;
7233;SDS011;3658;47.992;10.158;2024-03-06T02:00:10;1.43;;;1.33;;
7233;SDS011;3658;47.992;10.158;2024-03-06T02:02:41;1.47;;;1.37;;
7233;SDS011;3658;47.992;10.158;2024-03-06T02:05:08;1.30;;;1.20;;
7233;SDS011;3658;47.992;10.158;2024-03-06T02:07:37;1.67;;;1.20;;
7233;SDS011;3658;47.992;10.158;2024-03-06T02:10:06;1.30;;;1.20;;
7233;SDS011;3658;47.992;10.158;2024-03-06T02:12:34;1.27;;;1.17;;
7233;SDS011;3658;47.992;10.158;2024-03-06T02:15:01;1.67;;;1.20;;
7233;SDS011;3658;47.992;10.158;2024-03-06T02:17:29;1.50;;;1.40;;
7233;SDS011;3658;47.992;10.158;2024-03-06T02:19:55;1.47;;;1.17;;
7233;SDS011;3658;47.992;10.158;2024-03-06T02:22:24;2.50;;;1.20;;
7233;SDS011;3658;47.992;10.158;2024-03-06T02:24:51;1.17;;;1.10;;
7233;SDS011;3658;47.992;10.158;2024-03-06T02:27:18;1.27;;;1.17;;
7233;SDS011;3658;47.992;10.158;2024-03-06T02:29:45;1.43;;;1.20;;
7233;SDS011;3658;47.992;10.158;2024-03-06T02:32:12;1.40;;;1.30;;
7233;SDS011;3658;47.992;10.158;2024-03-06T02:34:39;1.03;;;1.03;;
7233;SDS011;3658;47.992;10.158;2024-03-06T02:37:06;1.30;;;1.20;;
7233;SDS011;3658;47.992;10.158;2024-03-06T02:39:34;1.33;;;1.23;;
7233;SDS011;3658;47.992;10.158;2024-03-06T02:42:01;1.07;;;1.03;;
7233;SDS011;3658;47.992;10.158;2024-03-06T02:44:29;1.30;;;1.20;;
7233;SDS011;3658;47.992;10.158;2024-03-06T02:46:55;1.00;;;1.00;;
7233;SDS011;3658;47.992;10.158;2024-03-06T02:49:22;1.23;;;1.13;;
7233;SDS011;3658;47.992;10.158;2024-03-06T02:51:49;1.13;;;1.10;;
7233;SDS011;3658;47.992;10.158;2024-03-06T02:54:16;1.73;;;1.17;;
7233;SDS011;3658;47.992;10.158;2024-03-06T02:56:44;1.10;;;1.00;;
7233;SDS011;3658;47.992;10.158;2024-03-06T02:59:11;2.17;;;1.20;;
7233;SDS011;3658;47.992;10.158;2024-03-06T03:01:38;1.13;;;1.03;;
7233;SDS011;3658;47.992;10.158;2024-03-06T03:04:05;1.20;;;1.10;;
7233;SDS011;3658;47.992;10.158;2024-03-06T03:06:32;1.30;;;1.20;;
7233;SDS011;3658;47.992;10.158;2024-03-06T03:08:59;1.20;;;1.10;;
7233;SDS011;3658;47.992;10.158;2024-03-06T03:11:26;1.20;;;1.10;;
7233;SDS011;3658;47.992;10.158;2024-03-06T03:13:54;1.20;;;1.10;;
7233;SDS011;3658;47.992;10.158;2024-03-06T03:16:22;0.97;;;0.97;;
7233;SDS011;3658;47.992;10.158;2024-03-06T03:18:49;1.20;;;1.10;;
7233;SDS011;3658;47.992;10.158;2024-03-06T03:21:15;1.00;;;1.00;;
7233;SDS011;3658;47.992;10.158;2024-03-06T03:23:42;1.63;;;1.13;;
7233;SDS011;3658;47.992;10.158;2024-03-06T03:26:09;1.30;;;1.10;;
7233;SDS011;3658;47.992;10.158;2024-03-06T03:28:37;1.10;;;1.00;;
7233;SDS011;3658;47.992;10.158;2024-03-06T03:31:05;1.07;;;1.00;;
7233;SDS011;3658;47.992;10.158;2024-03-06T03:33:33;1.20;;;1.03;;
7233;SDS011;3658;47.992;10.158;2024-03-06T03:36:01;1.20;;;1.10;;
7233;SDS011;3658;47.992;10.158;2024-03-06T03:38:28;1.60;;;1.30;;
7233;SDS011;3658;47.992;10.158;2024-03-06T03:40:55;1.10;;;1.00;;
7233;SDS011;3658;47.992;10.158;2024-03-06T03:43:21;1.20;;;1.10;;
7233;SDS011;3658;47.992;10.158;2024-03-06T03:45:48;2.03;;;1.10;;
7233;SDS011;3658;47.992;10.158;2024-03-06T03:48:16;1.10;;;1.00;;
7233;SDS011;3658;47.992;10.158;2024-03-06T03:50:43;1.20;;;1.10;;
7233;SDS011;3658;47.992;10.158;2024-03-06T03:53:09;1.20;;;1.10;;
7233;SDS011;3658;47.992;10.158;2024-03-06T03:55:36;1.17;;;1.10;;
7233;SDS011;3658;47.992;10.158;2024-03-06T03:58:03;1.13;;;1.07;;
7233;SDS011;3658;47.992;10.158;2024-03-06T04:00:31;1.27;;;1.00;;
7233;SDS011;3658;47.992;10.158;2024-03-06T04:02:58;1.13;;;1.03;;
7233;SDS011;3658;47.992;10.158;2024-03-06T04:05:26;1.33;;;1.07;;
7233;SDS011;3658;47.992;10.158;2024-03-06T04:07:53;0.90;;;0.90;;
7233;SDS011;3658;47.992;10.158;2024-03-06T04:10:20;1.30;;;1.20;;
7233;SDS011;3658;47.992;10.158;2024-03-06T04:12:46;1.13;;;1.10;;
7233;SDS011;3658;47.992;10.158;2024-03-06T04:15:14;1.20;;;1.10;;
7233;SDS011;3658;47.992;10.158;2024-03-06T04:17:41;1.30;;;1.20;;
7233;SDS011;3658;47.992;10.158;2024-03-06T04:20:08;1.10;;;1.10;;
7233;SDS011;3658;47.992;10.158;2024-03-06T04:22:38;0.90;;;0.90;;
7233;SDS011;3658;47.992;10.158;2024-03-06T04:25:05;1.33;;;1.23;;
7233;SDS011;3658;47.992;10.158;2024-03-06T04:27:32;1.30;;;1.20;;
7233;SDS011;3658;47.992;10.158;2024-03-06T04:29:59;1.17;;;1.07;;
7233;SDS011;3658;47.992;10.158;2024-03-06T04:32:25;1.47;;;1.00;;
7233;SDS011;3658;47.992;10.158;2024-03-06T04:34:52;1.10;;;1.00;;
7233;SDS011;3658;47.992;10.158;2024-03-06T04:37:21;1.03;;;1.00;;
7233;SDS011;3658;47.992;10.158;2024-03-06T04:39:49;1.30;;;1.10;;
7233;SDS011;3658;47.992;10.158;2024-03-06T04:42:15;1.73;;;1.33;;
7233;SDS011;3658;47.992;10.158;2024-03-06T04:44:42;0.93;;;0.93;;
7233;SDS011;3658;47.992;10.158;2024-03-06T04:47:09;1.43;;;1.27;;
7233;SDS011;3658;47.992;10.158;2024-03-06T04:49:36;1.57;;;1.10;;
7233;SDS011;3658;47.992;10.158;2024-03-06T04:52:02;1.00;;;1.00;;
7233;SDS011;3658;47.992;10.158;2024-03-06T04:54:29;1.13;;;1.03;;
7233;SDS011;3658;47.992;10.158;2024-03-06T04:56:57;1.20;;;1.10;;
7233;SDS011;3658;47.992;10.158;2024-03-06T04:59:24;1.10;;;1.00;;
7233;SDS011;3658;47.992;10.158;2024-03-06T05:01:51;1.10;;;1.00;;
7233;SDS011;3658;47.992;10.158;2024-03-06T05:04:18;1.00;;;0.90;;
7233;SDS011;3658;47.992;10.158;2024-03-06T05:06:45;1.20;;;1.10;;
7233;SDS011;3658;47.992;10.158;2024-03-06T05:09:12;0.90;;;0.90;;
7233;SDS011;3658;47.992;10.158;2024-03-06T05:11:40;1.20;;;1.00;;
7233;SDS011;3658;47.992;10.158;2024-03-06T05:14:08;1.20;;;1.07;;
7233;SDS011;3658;47.992;10.158;2024-03-06T05:16:35;1.20;;;1.10;;
7233;SDS011;3658;47.992;10.158;2024-03-06T05:19:01;1.33;;;1.00;;
7233;SDS011;3658;47.992;10.158;2024-03-06T05:21:29;1.13;;;1.07;;
7233;SDS011;3658;47.992;10.158;2024-03-06T05:23:56;1.17;;;1.07;;
7233;SDS011;3658;47.992;10.158;2024-03-06T05:26:23;1.10;;;1.00;;
7233;SDS011;3658;47.992;10.158;2024-03-06T05:28:49;1.10;;;1.00;;
7233;SDS011;3658;47.992;10.158;2024-03-06T05:31:18;1.30;;;0.93;;
7233;SDS011;3658;47.992;10.158;2024-03-06T05:33:46;4.33;;;1.17;;
7233;SDS011;3658;47.992;10.158;2024-03-06T05:36:14;1.13;;;1.03;;
7233;SDS011;3658;47.992;10.158;2024-03-06T05:38:42;2.50;;;1.10;;
7233;SDS011;3658;47.992;10.158;2024-03-06T05:41:09;1.10;;;1.00;;
7233;SDS011;3658;47.992;10.158;2024-03-06T05:43:36;3.33;;;1.10;;
7233;SDS011;3658;47.992;10.158;2024-03-06T05:46:03;5.07;;;1.00;;
7233;SDS011;3658;47.992;10.158;2024-03-06T05:48:31;2.27;;;1.03;;
7233;SDS011;3658;47.992;10.158;2024-03-06T05:50:58;1.87;;;1.00;;
7233;SDS011;3658;47.992;10.158;2024-03-06T05:53:25;1.63;;;1.13;;
7233;SDS011;3658;47.992;10.158;2024-03-06T05:55:51;1.00;;;0.90;;
7233;SDS011;3658;47.992;10.158;2024-03-06T05:58:19;1.20;;;1.10;;
7233;SDS011;3658;47.992;10.158;2024-03-06T06:00:46;2.20;;;1.00;;
7233;SDS011;3658;47.992;10.158;2024-03-06T06:03:13;2.33;;;1.10;;
7233;SDS011;3658;47.992;10.158;2024-03-06T06:05:41;1.13;;;1.03;;
7233;SDS011;3658;47.992;10.158;2024-03-06T06:08:08;1.87;;;1.00;;
7233;SDS011;3658;47.992;10.158;2024-03-06T06:10:35;2.27;;;1.30;;
7233;SDS011;3658;47.992;10.158;2024-03-06T06:13:02;3.27;;;1.20;;
7233;SDS011;3658;47.992;10.158;2024-03-06T06:15:29;3.67;;;1.13;;
7233;SDS011;3658;47.992;10.158;2024-03-06T06:17:56;5.47;;;1.87;;
7233;SDS011;3658;47.992;10.158;2024-03-06T06:20:23;12.67;;;1.70;;
7233;SDS011;3658;47.992;10.158;2024-03-06T06:22:52;8.07;;;2.10;;
7233;SDS011;3658;47.992;10.158;2024-03-06T06:25:18;3.73;;;1.50;;
7233;SDS011;3658;47.992;10.158;2024-03-06T06:27:45;7.80;;;1.50;;
7233;SDS011;3658;47.992;10.158;2024-03-06T06:30:13;3.13;;;1.30;;
7233;SDS011;3658;47.992;10.158;2024-03-06T06:32:40;3.80;;;1.33;;
7233;SDS011;3658;47.992;10.158;2024-03-06T06:35:08;3.03;;;1.50;;
7233;SDS011;3658;47.992;10.158;2024-03-06T06:37:36;2.27;;;1.30;;
7233;SDS011;3658;47.992;10.158;2024-03-06T06:40:05;8.03;;;1.60;;
7233;SDS011;3658;47.992;10.158;2024-03-06T06:42:33;5.67;;;1.30;;
7233;SDS011;3658;47.992;10.158;2024-03-06T06:45:00;1.70;;;1.03;;
7233;SDS011;3658;47.992;10.158;2024-03-06T06:47:27;3.27;;;1.50;;
7233;SDS011;3658;47.992;10.158;2024-03-06T06:49:54;6.67;;;1.40;;
7233;SDS011;3658;47.992;10.158;2024-03-06T06:52:21;1.33;;;1.17;;
7233;SDS011;3658;47.992;10.158;2024-03-06T06:54:47;2.57;;;1.13;;
7233;SDS011;3658;47.992;10.158;2024-03-06T06:57:17;2.57;;;1.20;;
7233;SDS011;3658;47.992;10.158;2024-03-06T06:59:45;2.17;;;1.40;;
7233;SDS011;3658;47.992;10.158;2024-03-06T07:02:11;2.40;;;1.40;;
7233;SDS011;3658;47.992;10.158;2024-03-06T07:04:38;1.20;;;1.10;;
7233;SDS011;3658;47.992;10.158;2024-03-06T07:07:05;1.67;;;1.10;;
7233;SDS011;3658;47.992;10.158;2024-03-06T07:09:32;3.17;;;1.40;;
7233;SDS011;3658;47.992;10.158;2024-03-06T07:11:59;1.30;;;1.10;;
7233;SDS011;3658;47.992;10.158;2024-03-06T07:14:27;3.33;;;1.40;;
7233;SDS011;3658;47.992;10.158;2024-03-06T07:16:54;4.77;;;1.20;;
7233;SDS011;3658;47.992;10.158;2024-03-06T07:19:20;1.50;;;1.20;;
7233;SDS011;3658;47.992;10.158;2024-03-06T07:21:47;2.73;;;1.10;;
7233;SDS011;3658;47.992;10.158;2024-03-06T07:24:14;1.33;;;1.20;;
7233;SDS011;3658;47.992;10.158;2024-03-06T07:26:40;1.47;;;1.20;;
7233;SDS011;3658;47.992;10.158;2024-03-06T07:29:08;1.50;;;1.30;;
7233;SDS011;3658;47.992;10.158;2024-03-06T07:31:41;1.20;;;1.10;;
7233;SDS011;3658;47.992;10.158;2024-03-06T07:34:09;1.23;;;0.97;;
7233;SDS011;3658;47.992;10.158;2024-03-06T07:36:36;1.47;;;1.10;;
7233;SDS011;3658;47.992;10.158;2024-03-06T07:39:02;2.00;;;1.33;;
7233;SDS011;3658;47.992;10.158;2024-03-06T07:41:30;2.90;;;1.20;;
7233;SDS011;3658;47.992;10.158;2024-03-06T07:43:57;2.37;;;1.27;;
7233;SDS011;3658;47.992;10.158;2024-03-06T07:46:25;2.00;;;1.17;;
7233;SDS011;3658;47.992;10.158;2024-03-06T07:48:53;1.17;;;1.07;;
7233;SDS011;3658;47.992;10.158;2024-03-06T07:51:20;1.60;;;1.20;;
7233;SDS011;3658;47.992;10.158;2024-03-06T07:53:46;1.37;;;1.20;;
7233;SDS011;3658;47.992;10.158;2024-03-06T07:56:15;1.57;;;1.23;;
7233;SDS011;3658;47.992;10.158;2024-03-06T07:58:42;2.00;;;1.43;;
7233;SDS011;3658;47.992;10.158;2024-03-06T08:01:09;2.00;;;1.20;;
7233;SDS011;3658;47.992;10.158;2024-03-06T08:03:38;1.43;;;1.10;;
7233;SDS011;3658;47.992;10.158;2024-03-06T08:06:07;5.50;;;1.60;;
7233;SDS011;3658;47.992;10.158;2024-03-06T08:08:33;2.63;;;1.50;;
7233;SDS011;3658;47.992;10.158;2024-03-06T08:11:01;2.80;;;1.63;;
7233;SDS011;3658;47.992;10.158;2024-03-06T08:13:27;1.10;;;1.00;;
7233;SDS011;3658;47.992;10.158;2024-03-06T08:15:54;4.57;;;1.23;;
7233;SDS011;3658;47.992;10.158;2024-03-06T08:18:21;2.07;;;1.40;;
7233;SDS011;3658;47.992;10.158;2024-03-06T08:20:48;1.80;;;1.30;;
7233;SDS011;3658;47.992;10.158;2024-03-06T08:23:16;3.00;;;1.43;;
7233;SDS011;3658;47.992;10.158;2024-03-06T08:25:43;1.97;;;1.20;;
7233;SDS011;3658;47.992;10.158;2024-03-06T08:28:10;3.83;;;1.53;;
7233;SDS011;3658;47.992;10.158;2024-03-06T08:30:36;4.40;;;1.40;;
7233;SDS011;3658;47.992;10.158;2024-03-06T08:33:03;1.83;;;1.10;;
7233;SDS011;3658;47.992;10.158;2024-03-06T08:35:30;2.00;;;1.23;;
7233;SDS011;3658;47.992;10.158;2024-03-06T08:37:57;4.30;;;1.40;;
7233;SDS011;3658;47.992;10.158;2024-03-06T08:40:25;2.00;;;1.03;;
7233;SDS011;3658;47.992;10.158;2024-03-06T08:42:53;1.47;;;1.10;;
7233;SDS011;3658;47.992;10.158;2024-03-06T08:45:20;3.37;;;1.20;;
7233;SDS011;3658;47.992;10.158;2024-03-06T08:47:48;2.47;;;1.17;;
7233;SDS011;3658;47.992;10.158;2024-03-06T08:50:15;1.10;;;1.00;;
7233;SDS011;3658;47.992;10.158;2024-03-06T08:52:42;1.00;;;1.00;;
7233;SDS011;3658;47.992;10.158;2024-03-06T08:55:09;1.27;;;1.17;;
7233;SDS011;3658;47.992;10.158;2024-03-06T08:57:36;3.10;;;1.30;;
7233;SDS011;3658;47.992;10.158;2024-03-06T09:00:04;1.10;;;1.00;;
7233;SDS011;3658;47.992;10.158;2024-03-06T09:02:35;2.20;;;1.00;;
7233;SDS011;3658;47.992;10.158;2024-03-06T09:05:03;2.60;;;1.10;;
7233;SDS011;3658;47.992;10.158;2024-03-06T09:07:30;3.13;;;1.23;;
7233;SDS011;3658;47.992;10.158;2024-03-06T09:10:02;2.07;;;0.90;;
7233;SDS011;3658;47.992;10.158;2024-03-06T09:12:30;1.80;;;1.00;;
7233;SDS011;3658;47.992;10.158;2024-03-06T09:14:58;1.23;;;1.07;;
7233;SDS011;3658;47.992;10.158;2024-03-06T09:17:27;1.90;;;1.00;;
7233;SDS011;3658;47.992;10.158;2024-03-06T09:19:53;1.20;;;1.10;;
7233;SDS011;3658;47.992;10.158;2024-03-06T09:22:20;0.90;;;0.90;;
7233;SDS011;3658;47.992;10.158;2024-03-06T09:24:47;1.07;;;1.00;;
7233;SDS011;3658;47.992;10.158;2024-03-06T09:27:14;1.17;;;1.07;;
7233;SDS011;3658;47.992;10.158;2024-03-06T09:29:42;1.00;;;0.83;;
7233;SDS011;3658;47.992;10.158;2024-03-06T09:32:10;1.10;;;1.00;;
7233;SDS011;3658;47.992;10.158;2024-03-06T09:34:40;3.20;;;1.17;;
7233;SDS011;3658;47.992;10.158;2024-03-06T09:37:06;1.30;;;1.10;;
7233;SDS011;3658;47.992;10.158;2024-03-06T09:39:34;1.57;;;1.00;;
7233;SDS011;3658;47.992;10.158;2024-03-06T09:42:01;1.00;;;0.90;;
7233;SDS011;3658;47.992;10.158;2024-03-06T09:44:28;0.93;;;0.93;;
7233;SDS011;3658;47.992;10.158;2024-03-06T09:46:55;1.30;;;1.00;;
7233;SDS011;3658;47.992;10.158;2024-03-06T09:49:29;1.70;;;1.20;;
7233;SDS011;3658;47.992;10.158;2024-03-06T09:51:56;2.40;;;1.20;;
7233;SDS011;3658;47.992;10.158;2024-03-06T09:54:25;1.10;;;1.00;;
7233;SDS011;3658;47.992;10.158;2024-03-06T09:56:53;0.93;;;0.90;;
7233;SDS011;3658;47.992;10.158;2024-03-06T09:59:20;1.40;;;1.00;;
7233;SDS011;3658;47.992;10.158;2024-03-06T10:01:48;0.80;;;0.80;;
7233;SDS011;3658;47.992;10.158;2024-03-06T10:04:20;1.00;;;0.90;;
7233;SDS011;3658;47.992;10.158;2024-03-06T10:06:48;1.10;;;1.00;;
7233;SDS011;3658;47.992;10.158;2024-03-06T10:09:16;1.00;;;0.90;;
7233;SDS011;3658;47.992;10.158;2024-03-06T10:11:44;1.10;;;1.00;;
7233;SDS011;3658;47.992;10.158;2024-03-06T10:14:11;1.30;;;1.10;;
7233;SDS011;3658;47.992;10.158;2024-03-06T10:16:51;1.00;;;0.90;;
7233;SDS011;3658;47.992;10.158;2024-03-06T10:19:18;0.93;;;0.93;;
7233;SDS011;3658;47.992;10.158;2024-03-06T10:21:46;1.07;;;0.97;;
7233;SDS011;3658;47.992;10.158;2024-03-06T10:24:19;1.80;;;1.10;;
7233;SDS011;3658;47.992;10.158;2024-03-06T10:26:48;1.00;;;1.00;;
7233;SDS011;3658;47.992;10.158;2024-03-06T10:29:15;0.87;;;0.87;;
7233;SDS011;3658;47.992;10.158;2024-03-06T10:31:47;2.17;;;1.10;;
7233;SDS011;3658;47.992;10.158;2024-03-06T10:34:15;2.50;;;1.20;;
7233;SDS011;3658;47.992;10.158;2024-03-06T10:36:42;0.80;;;0.80;;
7233;SDS011;3658;47.992;10.158;2024-03-06T10:39:12;1.50;;;1.00;;
7233;SDS011;3658;47.992;10.158;2024-03-06T10:41:40;1.27;;;0.90;;
7233;SDS011;3658;47.992;10.158;2024-03-06T10:44:09;0.90;;;0.90;;
7233;SDS011;3658;47.992;10.158;2024-03-06T10:46:39;1.20;;;1.07;;
7233;SDS011;3658;47.992;10.158;2024-03-06T10:49:09;0.80;;;0.80;;
7233;SDS011;3658;47.992;10.158;2024-03-06T10:51:38;1.67;;;0.90;;
7233;SDS011;3658;47.992;10.158;2024-03-06T10:54:08;1.20;;;1.10;;
7233;SDS011;3658;47.992;10.158;2024-03-06T10:56:37;0.70;;;0.70;;
7233;SDS011;3658;47.992;10.158;2024-03-06T10:59:06;1.03;;;0.90;;
7233;SDS011;3658;47.992;10.158;2024-03-06T11:01:35;1.10;;;1.00;;
7233;SDS011;3658;47.992;10.158;2024-03-06T11:04:03;0.97;;;0.80;;
7233;SDS011;3658;47.992;10.158;2024-03-06T11:06:31;1.13;;;0.90;;
7233;SDS011;3658;47.992;10.158;2024-03-06T11:08:58;1.80;;;0.90;;
7233;SDS011;3658;47.992;10.158;2024-03-06T11:11:25;0.87;;;0.80;;
7233;SDS011;3658;47.992;10.158;2024-03-06T11:13:55;1.33;;;1.10;;
7233;SDS011;3658;47.992;10.158;2024-03-06T11:16:29;0.87;;;0.87;;
7233;SDS011;3658;47.992;10.158;2024-03-06T11:19:05;1.10;;;0.90;;
7233;SDS011;3658;47.992;10.158;2024-03-06T11:21:33;1.07;;;0.97;;
7233;SDS011;3658;47.992;10.158;2024-03-06T11:24:13;1.20;;;1.10;;
7233;SDS011;3658;47.992;10.158;2024-03-06T11:26:55;7.03;;;2.67;;
7233;SDS011;3658;47.992;10.158;2024-03-06T11:29:26;12.13;;;5.73;;
7233;SDS011;3658;47.992;10.158;2024-03-06T11:32:04;23.43;;;10.87;;
7233;SDS011;3658;47.992;10.158;2024-03-06T11:37:55;53.47;;;20.50;;
7233;SDS011;3658;47.992;10.158;2024-03-06T11:40:22;42.07;;;19.90;;
7233;SDS011;3658;47.992;10.158;2024-03-06T11:42:50;46.20;;;20.80;;
7233;SDS011;3658;47.992;10.158;2024-03-06T11:45:18;49.73;;;21.67;;
7233;SDS011;3658;47.992;10.158;2024-03-06T11:47:56;43.33;;;20.57;;
7233;SDS011;3658;47.992;10.158;2024-03-06T11:50:25;47.27;;;19.80;;
7233;SDS011;3658;47.992;10.158;2024-03-06T11:52:53;41.20;;;18.90;;
7233;SDS011;3658;47.992;10.158;2024-03-06T11:55:20;46.37;;;19.30;;
7233;SDS011;3658;47.992;10.158;2024-03-06T11:57:47;35.73;;;17.70;;
7233;SDS011;3658;47.992;10.158;2024-03-06T12:00:15;40.37;;;19.10;;
7233;SDS011;3658;47.992;10.158;2024-03-06T12:02:43;35.23;;;16.63;;
7233;SDS011;3658;47.992;10.158;2024-03-06T12:05:11;33.97;;;14.97;;
7233;SDS011;3658;47.992;10.158;2024-03-06T12:07:46;25.10;;;10.93;;
7233;SDS011;3658;47.992;10.158;2024-03-06T12:10:13;31.70;;;15.20;;
7233;SDS011;3658;47.992;10.158;2024-03-06T12:12:40;27.00;;;13.00;;
7233;SDS011;3658;47.992;10.158;2024-03-06T12:15:09;27.83;;;11.47;;
7233;SDS011;3658;47.992;10.158;2024-03-06T12:17:41;27.77;;;12.73;;
7233;SDS011;3658;47.992;10.158;2024-03-06T12:20:11;24.73;;;11.73;;
7233;SDS011;3658;47.992;10.158;2024-03-06T12:22:43;18.53;;;9.23;;
7233;SDS011;3658;47.992;10.158;2024-03-06T12:25:10;25.57;;;10.87;;
7233;SDS011;3658;47.992;10.158;2024-03-06T12:27:44;21.70;;;10.93;;
7233;SDS011;3658;47.992;10.158;2024-03-06T12:30:11;16.87;;;9.53;;
7233;SDS011;3658;47.992;10.158;2024-03-06T12:32:38;17.07;;;9.47;;
7233;SDS011;3658;47.992;10.158;2024-03-06T12:35:07;20.70;;;9.90;;
7233;SDS011;3658;47.992;10.158;2024-03-06T12:37:35;19.30;;;9.60;;
7233;SDS011;3658;47.992;10.158;2024-03-06T12:40:02;18.53;;;9.43;;
7233;SDS011;3658;47.992;10.158;2024-03-06T12:42:30;18.07;;;9.30;;
7233;SDS011;3658;47.992;10.158;2024-03-06T12:44:57;20.27;;;9.67;;
7233;SDS011;3658;47.992;10.158;2024-03-06T12:47:24;18.83;;;9.10;;
7233;SDS011;3658;47.992;10.158;2024-03-06T12:49:50;17.57;;;9.10;;
7233;SDS011;3658;47.992;10.158;2024-03-06T12:52:19;16.50;;;7.73;;
7233;SDS011;3658;47.992;10.158;2024-03-06T12:54:46;18.97;;;8.17;;
7233;SDS011;3658;47.992;10.158;2024-03-06T12:57:12;15.57;;;8.20;;
7233;SDS011;3658;47.992;10.158;2024-03-06T12:59:39;15.90;;;8.23;;
7233;SDS011;3658;47.992;10.158;2024-03-06T13:02:06;14.27;;;7.00;;
7233;SDS011;3658;47.992;10.158;2024-03-06T13:04:33;15.93;;;7.83;;
7233;SDS011;3658;47.992;10.158;2024-03-06T13:07:00;14.83;;;7.87;;
7233;SDS011;3658;47.992;10.158;2024-03-06T13:09:28;11.23;;;6.83;;
7233;SDS011;3658;47.992;10.158;2024-03-06T13:11:55;10.93;;;6.60;;
7233;SDS011;3658;47.992;10.158;2024-03-06T13:14:22;15.47;;;6.93;;
7233;SDS011;3658;47.992;10.158;2024-03-06T13:16:49;11.07;;;6.17;;
7233;SDS011;3658;47.992;10.158;2024-03-06T13:19:15;9.50;;;5.93;;
7233;SDS011;3658;47.992;10.158;2024-03-06T13:21:42;10.47;;;6.13;;
7233;SDS011;3658;47.992;10.158;2024-03-06T13:24:09;8.70;;;5.10;;
7233;SDS011;3658;47.992;10.158;2024-03-06T13:26:37;11.00;;;5.63;;
7233;SDS011;3658;47.992;10.158;2024-03-06T13:29:05;10.03;;;5.10;;
7233;SDS011;3658;47.992;10.158;2024-03-06T13:31:32;12.50;;;4.67;;
7233;SDS011;3658;47.992;10.158;2024-03-06T13:34:00;8.57;;;4.63;;
7233;SDS011;3658;47.992;10.158;2024-03-06T13:36:28;9.83;;;4.90;;
7233;SDS011;3658;47.992;10.158;2024-03-06T13:38:55;6.63;;;4.10;;
7233;SDS011;3658;47.992;10.158;2024-03-06T13:41:22;8.17;;;4.50;;
7233;SDS011;3658;47.992;10.158;2024-03-06T13:43:50;8.20;;;4.57;;
7233;SDS011;3658;47.992;10.158;2024-03-06T13:46:17;8.93;;;4.57;;
7233;SDS011;3658;47.992;10.158;2024-03-06T13:48:44;7.93;;;4.47;;
7233;SDS011;3658;47.992;10.158;2024-03-06T13:51:11;6.40;;;3.93;;
7233;SDS011;3658;47.992;10.158;2024-03-06T13:53:37;7.43;;;4.07;;
7233;SDS011;3658;47.992;10.158;2024-03-06T13:56:04;5.83;;;4.40;;
7233;SDS011;3658;47.992;10.158;2024-03-06T13:58:31;8.53;;;3.90;;
7233;SDS011;3658;47.992;10.158;2024-03-06T14:00:59;11.37;;;4.10;;
7233;SDS011;3658;47.992;10.158;2024-03-06T14:03:27;8.27;;;3.67;;
7233;SDS011;3658;47.992;10.158;2024-03-06T14:05:54;6.57;;;3.60;;
7233;SDS011;3658;47.992;10.158;2024-03-06T14:08:20;5.10;;;3.20;;
7233;SDS011;3658;47.992;10.158;2024-03-06T14:10:47;3.90;;;3.20;;
7233;SDS011;3658;47.992;10.158;2024-03-06T14:13:14;7.07;;;3.70;;
7233;SDS011;3658;47.992;10.158;2024-03-06T14:15:41;7.53;;;3.20;;
7233;SDS011;3658;47.992;10.158;2024-03-06T14:18:09;5.57;;;3.10;;
7233;SDS011;3658;47.992;10.158;2024-03-06T14:20:36;7.17;;;3.20;;
7233;SDS011;3658;47.992;10.158;2024-03-06T14:23:04;10.13;;;3.00;;
7233;SDS011;3658;47.992;10.158;2024-03-06T14:25:30;6.63;;;3.03;;
7233;SDS011;3658;47.992;10.158;2024-03-06T14:28:00;6.90;;;3.27;;
7233;SDS011;3658;47.992;10.158;2024-03-06T14:30:26;6.50;;;3.37;;
7233;SDS011;3658;47.992;10.158;2024-03-06T14:32:53;4.00;;;2.90;;
7233;SDS011;3658;47.992;10.158;2024-03-06T14:35:21;3.87;;;2.80;;
7233;SDS011;3658;47.992;10.158;2024-03-06T14:37:48;7.83;;;3.23;;
7233;SDS011;3658;47.992;10.158;2024-03-06T14:40:15;9.10;;;2.97;;
7233;SDS011;3658;47.992;10.158;2024-03-06T14:42:42;4.37;;;2.90;;
7233;SDS011;3658;47.992;10.158;2024-03-06T14:45:09;5.80;;;3.47;;
7233;SDS011;3658;47.992;10.158;2024-03-06T14:47:36;7.03;;;3.17;;
7233;SDS011;3658;47.992;10.158;2024-03-06T14:50:02;4.80;;;2.90;;
7233;SDS011;3658;47.992;10.158;2024-03-06T14:52:31;3.80;;;2.43;;
7233;SDS011;3658;47.992;10.158;2024-03-06T14:54:59;3.30;;;2.70;;
7233;SDS011;3658;47.992;10.158;2024-03-06T14:57:27;4.20;;;2.60;;
7233;SDS011;3658;47.992;10.158;2024-03-06T14:59:53;3.77;;;2.50;;
7233;SDS011;3658;47.992;10.158;2024-03-06T15:02:20;4.07;;;2.50;;